sensor_id;sensor_type;location;lat;lon;timestamp;temperature;humidity
7658;DHT22;8462;53.156;8.220;2024-01-11T00:00:53;-2.40;99.90
7658;DHT22;8462;53.156;8.220;2024-01-11T00:03:20;-2.40;99.90
7658;DHT22;8462;53.156;8.220;2024-01-11T00:05:48;-2.40;99.90
7658;DHT22;8462;53.156;8.220;2024-01-11T00:08:16;-2.30;99.90
7658;DHT22;8462;53.156;8.220;2024-01-11T00:10:43;-2.30;99.90
7658;DHT22;8462;53.156;8.220;2024-01-11T00:13:10;-2.30;99.90
7658;DHT22;8462;53.156;8.220;2024-01-11T00:15:37;-2.30;99.90
7658;DHT22;8462;53.156;8.220;2024-01-11T00:18:04;-2.30;99.90
7658;DHT22;8462;53.156;8.220;2024-01-11T00:20:32;-2.30;99.90
7658;DHT22;8462;53.156;8.220;2024-01-11T00:23:00;-2.30;99.90
7658;DHT22;8462;53.156;8.220;2024-01-11T00:25:27;-2.30;99.90
7658;DHT22;8462;53.156;8.220;2024-01-11T00:27:54;-2.20;99.90
7658;DHT22;8462;53.156;8.220;2024-01-11T00:30:21;-2.10;99.90
7658;DHT22;8462;53.156;8.220;2024-01-11T00:32:49;-2.10;99.90
7658;DHT22;8462;53.156;8.220;2024-01-11T00:35:16;-2.10;99.90
7658;DHT22;8462;53.156;8.220;2024-01-11T00:37:43;-2.10;99.90
7658;DHT22;8462;53.156;8.220;2024-01-11T00:40:12;-2.10;99.90
7658;DHT22;8462;53.156;8.220;2024-01-11T00:42:39;-2.10;99.90
7658;DHT22;8462;53.156;8.220;2024-01-11T00:45:06;-2.10;99.90
7658;DHT22;8462;53.156;8.220;2024-01-11T00:47:33;-2.10;99.90
7658;DHT22;8462;53.156;8.220;2024-01-11T00:50:00;-2.10;99.90
7658;DHT22;8462;53.156;8.220;2024-01-11T00:52:27;-2.00;99.90
7658;DHT22;8462;53.156;8.220;2024-01-11T00:54:54;-2.00;99.90
7658;DHT22;8462;53.156;8.220;2024-01-11T00:57:23;-2.00;99.90
7658;DHT22;8462;53.156;8.220;2024-01-11T00:59:50;-2.10;99.90
7658;DHT22;8462;53.156;8.220;2024-01-11T01:02:19;-2.10;99.90
7658;DHT22;8462;53.156;8.220;2024-01-11T01:04:46;-2.10;99.90
7658;DHT22;8462;53.156;8.220;2024-01-11T01:07:13;-2.10;99.90
7658;DHT22;8462;53.156;8.220;2024-01-11T01:09:40;-2.10;99.90
7658;DHT22;8462;53.156;8.220;2024-01-11T01:12:07;-2.20;99.90
7658;DHT22;8462;53.156;8.220;2024-01-11T01:14:36;-2.30;99.90
7658;DHT22;8462;53.156;8.220;2024-01-11T01:17:03;-2.30;99.90
7658;DHT22;8462;53.156;8.220;2024-01-11T01:19:31;-2.40;99.90
7658;DHT22;8462;53.156;8.220;2024-01-11T01:21:58;-2.30;99.90
7658;DHT22;8462;53.156;8.220;2024-01-11T01:24:25;-2.30;99.90
7658;DHT22;8462;53.156;8.220;2024-01-11T01:26:52;-2.30;99.90
7658;DHT22;8462;53.156;8.220;2024-01-11T01:29:19;-2.20;99.90
7658;DHT22;8462;53.156;8.220;2024-01-11T01:31:47;-2.20;99.90
7658;DHT22;8462;53.156;8.220;2024-01-11T01:34:14;-2.20;99.90
7658;DHT22;8462;53.156;8.220;2024-01-11T01:36:41;-2.10;99.90
7658;DHT22;8462;53.156;8.220;2024-01-11T01:39:08;-2.10;99.90
7658;DHT22;8462;53.156;8.220;2024-01-11T01:41:35;-2.10;99.90
7658;DHT22;8462;53.156;8.220;2024-01-11T01:44:03;-2.00;99.90
7658;DHT22;8462;53.156;8.220;2024-01-11T01:46:30;-2.00;99.90
7658;DHT22;8462;53.156;8.220;2024-01-11T01:49:00;-2.00;99.90
7658;DHT22;8462;53.156;8.220;2024-01-11T01:51:29;-2.10;99.90
7658;DHT22;8462;53.156;8.220;2024-01-11T01:53:58;-2.20;99.90
7658;DHT22;8462;53.156;8.220;2024-01-11T01:56:27;-2.20;99.90
7658;DHT22;8462;53.156;8.220;2024-01-11T01:58:54;-2.20;99.90
7658;DHT22;8462;53.156;8.220;2024-01-11T02:01:23;-2.10;99.90
7658;DHT22;8462;53.156;8.220;2024-01-11T02:03:50;-2.00;99.90
7658;DHT22;8462;53.156;8.220;2024-01-11T02:06:23;-2.00;99.90
7658;DHT22;8462;53.156;8.220;2024-01-11T02:08:52;-1.90;99.90
7658;DHT22;8462;53.156;8.220;2024-01-11T02:11:21;-1.90;99.90
7658;DHT22;8462;53.156;8.220;2024-01-11T02:13:50;-1.90;99.90
7658;DHT22;8462;53.156;8.220;2024-01-11T02:16:17;-1.90;99.90
7658;DHT22;8462;53.156;8.220;2024-01-11T02:18:44;-1.90;99.90
7658;DHT22;8462;53.156;8.220;2024-01-11T02:21:11;-1.90;99.90
7658;DHT22;8462;53.156;8.220;2024-01-11T02:23:43;-2.00;99.90
7658;DHT22;8462;53.156;8.220;2024-01-11T02:26:14;-2.00;99.90
7658;DHT22;8462;53.156;8.220;2024-01-11T02:28:45;-2.00;99.90
7658;DHT22;8462;53.156;8.220;2024-01-11T02:31:13;-2.10;99.90
7658;DHT22;8462;53.156;8.220;2024-01-11T02:33:42;-2.10;99.90
7658;DHT22;8462;53.156;8.220;2024-01-11T02:36:09;-2.10;99.90
7658;DHT22;8462;53.156;8.220;2024-01-11T02:38:37;-2.20;99.90
7658;DHT22;8462;53.156;8.220;2024-01-11T02:41:05;-2.20;99.90
7658;DHT22;8462;53.156;8.220;2024-01-11T02:43:35;-2.20;99.90
7658;DHT22;8462;53.156;8.220;2024-01-11T02:46:03;-2.20;99.90
7658;DHT22;8462;53.156;8.220;2024-01-11T02:48:30;-2.20;99.90
7658;DHT22;8462;53.156;8.220;2024-01-11T02:50:58;-2.20;99.90
7658;DHT22;8462;53.156;8.220;2024-01-11T02:53:25;-2.20;99.90
7658;DHT22;8462;53.156;8.220;2024-01-11T02:55:52;-2.20;99.90
7658;DHT22;8462;53.156;8.220;2024-01-11T02:58:19;-2.20;99.90
7658;DHT22;8462;53.156;8.220;2024-01-11T03:00:47;-2.30;99.90
7658;DHT22;8462;53.156;8.220;2024-01-11T03:03:16;-2.20;99.90
7658;DHT22;8462;53.156;8.220;2024-01-11T03:05:45;-2.20;99.90
7658;DHT22;8462;53.156;8.220;2024-01-11T03:08:12;-2.20;99.90
7658;DHT22;8462;53.156;8.220;2024-01-11T03:10:39;-2.20;99.90
7658;DHT22;8462;53.156;8.220;2024-01-11T03:13:07;-2.20;99.90
7658;DHT22;8462;53.156;8.220;2024-01-11T03:15:34;-2.20;99.90
7658;DHT22;8462;53.156;8.220;2024-01-11T03:18:04;-2.20;99.90
7658;DHT22;8462;53.156;8.220;2024-01-11T03:20:31;-2.20;99.90
7658;DHT22;8462;53.156;8.220;2024-01-11T03:22:58;-2.20;99.90
7658;DHT22;8462;53.156;8.220;2024-01-11T03:25:25;-2.20;99.90
7658;DHT22;8462;53.156;8.220;2024-01-11T03:27:53;-2.20;99.90
7658;DHT22;8462;53.156;8.220;2024-01-11T03:30:20;-2.30;99.90
7658;DHT22;8462;53.156;8.220;2024-01-11T03:32:47;-2.30;99.90
7658;DHT22;8462;53.156;8.220;2024-01-11T03:35:15;-2.30;99.90
7658;DHT22;8462;53.156;8.220;2024-01-11T03:37:42;-2.30;99.90
7658;DHT22;8462;53.156;8.220;2024-01-11T03:40:10;-2.30;99.90
7658;DHT22;8462;53.156;8.220;2024-01-11T03:42:37;-2.40;99.90
7658;DHT22;8462;53.156;8.220;2024-01-11T03:45:05;-2.50;99.90
7658;DHT22;8462;53.156;8.220;2024-01-11T03:47:34;-2.50;99.90
7658;DHT22;8462;53.156;8.220;2024-01-11T03:50:02;-2.50;99.90
7658;DHT22;8462;53.156;8.220;2024-01-11T03:52:31;-2.50;99.90
7658;DHT22;8462;53.156;8.220;2024-01-11T03:54:58;-2.40;99.90
7658;DHT22;8462;53.156;8.220;2024-01-11T03:57:25;-2.40;99.90
7658;DHT22;8462;53.156;8.220;2024-01-11T03:59:52;-2.30;99.90
7658;DHT22;8462;53.156;8.220;2024-01-11T04:02:19;-2.20;99.90
7658;DHT22;8462;53.156;8.220;2024-01-11T04:04:46;-2.10;99.90
7658;DHT22;8462;53.156;8.220;2024-01-11T04:07:14;-2.10;99.90
7658;DHT22;8462;53.156;8.220;2024-01-11T04:09:44;-2.10;99.90
7658;DHT22;8462;53.156;8.220;2024-01-11T04:12:15;-2.00;99.90
7658;DHT22;8462;53.156;8.220;2024-01-11T04:14:42;-1.90;99.90
7658;DHT22;8462;53.156;8.220;2024-01-11T04:17:09;-1.80;99.90
7658;DHT22;8462;53.156;8.220;2024-01-11T04:19:36;-1.80;99.90
7658;DHT22;8462;53.156;8.220;2024-01-11T04:22:03;-1.70;99.90
7658;DHT22;8462;53.156;8.220;2024-01-11T04:24:30;-1.60;99.90
7658;DHT22;8462;53.156;8.220;2024-01-11T04:26:59;-1.50;99.90
7658;DHT22;8462;53.156;8.220;2024-01-11T04:29:26;-1.50;99.90
7658;DHT22;8462;53.156;8.220;2024-01-11T04:31:53;-1.40;99.90
7658;DHT22;8462;53.156;8.220;2024-01-11T04:34:20;-1.30;99.90
7658;DHT22;8462;53.156;8.220;2024-01-11T04:36:47;-1.30;99.90
7658;DHT22;8462;53.156;8.220;2024-01-11T04:39:14;-1.30;99.90
7658;DHT22;8462;53.156;8.220;2024-01-11T04:41:41;-1.30;99.90
7658;DHT22;8462;53.156;8.220;2024-01-11T04:44:10;-1.30;99.90
7658;DHT22;8462;53.156;8.220;2024-01-11T04:46:37;-1.20;99.90
7658;DHT22;8462;53.156;8.220;2024-01-11T04:49:05;-1.10;99.90
7658;DHT22;8462;53.156;8.220;2024-01-11T04:51:32;-1.00;99.90
7658;DHT22;8462;53.156;8.220;2024-01-11T04:53:59;-1.00;99.90
7658;DHT22;8462;53.156;8.220;2024-01-11T04:56:26;-1.00;99.90
7658;DHT22;8462;53.156;8.220;2024-01-11T04:58:55;-1.00;99.90
7658;DHT22;8462;53.156;8.220;2024-01-11T05:01:23;-1.00;99.90
7658;DHT22;8462;53.156;8.220;2024-01-11T05:03:51;-1.00;99.90
7658;DHT22;8462;53.156;8.220;2024-01-11T05:06:19;-0.90;99.90
7658;DHT22;8462;53.156;8.220;2024-01-11T05:08:47;-0.80;99.90
7658;DHT22;8462;53.156;8.220;2024-01-11T05:11:17;-0.80;99.90
7658;DHT22;8462;53.156;8.220;2024-01-11T05:13:45;-0.80;99.90
7658;DHT22;8462;53.156;8.220;2024-01-11T05:16:18;-0.80;99.90
7658;DHT22;8462;53.156;8.220;2024-01-11T05:18:47;-0.80;99.90
7658;DHT22;8462;53.156;8.220;2024-01-11T05:21:14;-0.80;99.90
7658;DHT22;8462;53.156;8.220;2024-01-11T05:23:41;-0.70;99.90
7658;DHT22;8462;53.156;8.220;2024-01-11T05:26:08;-0.70;99.90
7658;DHT22;8462;53.156;8.220;2024-01-11T05:28:35;-0.60;99.90
7658;DHT22;8462;53.156;8.220;2024-01-11T05:31:05;-0.50;99.90
7658;DHT22;8462;53.156;8.220;2024-01-11T05:33:32;-0.40;99.90
7658;DHT22;8462;53.156;8.220;2024-01-11T05:36:02;-0.40;99.90
7658;DHT22;8462;53.156;8.220;2024-01-11T05:38:29;-0.30;99.90
7658;DHT22;8462;53.156;8.220;2024-01-11T05:40:56;-0.30;99.90
7658;DHT22;8462;53.156;8.220;2024-01-11T05:43:23;-0.30;99.90
7658;DHT22;8462;53.156;8.220;2024-01-11T05:45:52;-0.20;99.90
7658;DHT22;8462;53.156;8.220;2024-01-11T05:48:20;-0.20;99.90
7658;DHT22;8462;53.156;8.220;2024-01-11T05:50:47;-0.10;99.90
7658;DHT22;8462;53.156;8.220;2024-01-11T05:53:15;-0.10;99.90
7658;DHT22;8462;53.156;8.220;2024-01-11T05:55:42;-0.10;99.90
7658;DHT22;8462;53.156;8.220;2024-01-11T05:58:09;-0.10;99.90
7658;DHT22;8462;53.156;8.220;2024-01-11T06:00:36;0.00;99.90
7658;DHT22;8462;53.156;8.220;2024-01-11T06:03:04;0.00;99.90
7658;DHT22;8462;53.156;8.220;2024-01-11T06:05:31;0.00;99.90
7658;DHT22;8462;53.156;8.220;2024-01-11T06:07:58;0.00;99.90
7658;DHT22;8462;53.156;8.220;2024-01-11T06:10:28;-0.10;99.90
7658;DHT22;8462;53.156;8.220;2024-01-11T06:12:54;-0.10;99.90
7658;DHT22;8462;53.156;8.220;2024-01-11T06:15:22;-0.10;99.90
7658;DHT22;8462;53.156;8.220;2024-01-11T06:17:49;0.00;99.90
7658;DHT22;8462;53.156;8.220;2024-01-11T06:20:16;0.00;99.90
7658;DHT22;8462;53.156;8.220;2024-01-11T06:22:43;0.00;99.90
7658;DHT22;8462;53.156;8.220;2024-01-11T06:25:10;0.00;99.90
7658;DHT22;8462;53.156;8.220;2024-01-11T06:27:38;0.00;99.90
7658;DHT22;8462;53.156;8.220;2024-01-11T06:30:06;0.00;99.90
7658;DHT22;8462;53.156;8.220;2024-01-11T06:32:34;0.00;99.90
7658;DHT22;8462;53.156;8.220;2024-01-11T06:35:01;0.10;99.90
7658;DHT22;8462;53.156;8.220;2024-01-11T06:37:34;0.10;99.90
7658;DHT22;8462;53.156;8.220;2024-01-11T06:40:01;0.10;99.90
7658;DHT22;8462;53.156;8.220;2024-01-11T06:42:29;0.10;99.90
7658;DHT22;8462;53.156;8.220;2024-01-11T06:44:58;0.20;99.90
7658;DHT22;8462;53.156;8.220;2024-01-11T06:47:25;0.20;99.90
7658;DHT22;8462;53.156;8.220;2024-01-11T06:49:53;0.30;99.90
7658;DHT22;8462;53.156;8.220;2024-01-11T06:52:20;0.20;99.90
7658;DHT22;8462;53.156;8.220;2024-01-11T06:54:47;0.30;99.90
7658;DHT22;8462;53.156;8.220;2024-01-11T06:57:14;0.30;99.90
7658;DHT22;8462;53.156;8.220;2024-01-11T06:59:42;0.30;99.90
7658;DHT22;8462;53.156;8.220;2024-01-11T07:02:13;0.40;99.90
7658;DHT22;8462;53.156;8.220;2024-01-11T07:04:43;0.40;99.90
7658;DHT22;8462;53.156;8.220;2024-01-11T07:07:11;0.40;99.90
7658;DHT22;8462;53.156;8.220;2024-01-11T07:09:38;0.40;99.90
7658;DHT22;8462;53.156;8.220;2024-01-11T07:12:06;0.50;99.90
7658;DHT22;8462;53.156;8.220;2024-01-11T07:14:33;0.50;99.90
7658;DHT22;8462;53.156;8.220;2024-01-11T07:17:00;0.50;99.90
7658;DHT22;8462;53.156;8.220;2024-01-11T07:19:29;0.50;99.90
7658;DHT22;8462;53.156;8.220;2024-01-11T07:21:56;0.50;99.90
7658;DHT22;8462;53.156;8.220;2024-01-11T07:24:23;0.60;99.90
7658;DHT22;8462;53.156;8.220;2024-01-11T07:26:51;0.60;99.90
7658;DHT22;8462;53.156;8.220;2024-01-11T07:29:19;0.50;99.90
7658;DHT22;8462;53.156;8.220;2024-01-11T07:31:46;0.60;99.90
7658;DHT22;8462;53.156;8.220;2024-01-11T07:34:13;0.60;99.90
7658;DHT22;8462;53.156;8.220;2024-01-11T07:36:42;0.60;99.90
7658;DHT22;8462;53.156;8.220;2024-01-11T07:39:10;0.60;99.90
7658;DHT22;8462;53.156;8.220;2024-01-11T07:41:37;0.60;99.90
7658;DHT22;8462;53.156;8.220;2024-01-11T07:44:07;0.60;99.90
7658;DHT22;8462;53.156;8.220;2024-01-11T07:46:34;0.70;99.90
7658;DHT22;8462;53.156;8.220;2024-01-11T07:49:02;0.70;99.90
7658;DHT22;8462;53.156;8.220;2024-01-11T07:51:30;0.70;99.90
7658;DHT22;8462;53.156;8.220;2024-01-11T07:53:58;0.70;99.90
7658;DHT22;8462;53.156;8.220;2024-01-11T07:56:26;0.80;99.90
7658;DHT22;8462;53.156;8.220;2024-01-11T07:58:53;0.80;99.90
7658;DHT22;8462;53.156;8.220;2024-01-11T08:01:20;0.80;99.90
7658;DHT22;8462;53.156;8.220;2024-01-11T08:03:47;0.90;99.90
7658;DHT22;8462;53.156;8.220;2024-01-11T08:06:17;0.90;99.90
7658;DHT22;8462;53.156;8.220;2024-01-11T08:08:44;0.90;99.90
7658;DHT22;8462;53.156;8.220;2024-01-11T08:11:18;1.00;99.90
7658;DHT22;8462;53.156;8.220;2024-01-11T08:13:45;1.10;99.90
7658;DHT22;8462;53.156;8.220;2024-01-11T08:16:16;1.10;99.90
7658;DHT22;8462;53.156;8.220;2024-01-11T08:18:43;1.10;99.90
7658;DHT22;8462;53.156;8.220;2024-01-11T08:21:11;1.20;99.90
7658;DHT22;8462;53.156;8.220;2024-01-11T08:23:40;1.20;99.90
7658;DHT22;8462;53.156;8.220;2024-01-11T08:26:11;1.30;99.90
7658;DHT22;8462;53.156;8.220;2024-01-11T08:28:41;1.30;99.90
7658;DHT22;8462;53.156;8.220;2024-01-11T08:31:08;1.40;99.90
7658;DHT22;8462;53.156;8.220;2024-01-11T08:33:35;1.50;99.90
7658;DHT22;8462;53.156;8.220;2024-01-11T08:36:03;1.50;99.90
7658;DHT22;8462;53.156;8.220;2024-01-11T08:38:30;1.50;99.90
7658;DHT22;8462;53.156;8.220;2024-01-11T08:40:58;1.60;99.90
7658;DHT22;8462;53.156;8.220;2024-01-11T08:43:25;1.60;99.90
7658;DHT22;8462;53.156;8.220;2024-01-11T08:45:54;1.70;99.90
7658;DHT22;8462;53.156;8.220;2024-01-11T08:48:21;1.80;99.90
7658;DHT22;8462;53.156;8.220;2024-01-11T08:50:48;1.80;99.90
7658;DHT22;8462;53.156;8.220;2024-01-11T08:53:15;1.90;99.90
7658;DHT22;8462;53.156;8.220;2024-01-11T08:55:43;2.00;99.90
7658;DHT22;8462;53.156;8.220;2024-01-11T08:58:10;2.00;99.90
7658;DHT22;8462;53.156;8.220;2024-01-11T09:00:38;2.00;99.90
7658;DHT22;8462;53.156;8.220;2024-01-11T09:03:06;2.00;99.90
7658;DHT22;8462;53.156;8.220;2024-01-11T09:05:33;2.10;99.90
7658;DHT22;8462;53.156;8.220;2024-01-11T09:08:00;2.20;99.90
7658;DHT22;8462;53.156;8.220;2024-01-11T09:10:27;2.20;99.90
7658;DHT22;8462;53.156;8.220;2024-01-11T09:12:55;2.30;99.90
7658;DHT22;8462;53.156;8.220;2024-01-11T09:15:22;2.40;99.90
7658;DHT22;8462;53.156;8.220;2024-01-11T09:17:49;2.50;99.90
7658;DHT22;8462;53.156;8.220;2024-01-11T09:20:19;2.60;99.90
7658;DHT22;8462;53.156;8.220;2024-01-11T09:22:46;2.60;99.90
7658;DHT22;8462;53.156;8.220;2024-01-11T09:25:13;2.70;99.90
7658;DHT22;8462;53.156;8.220;2024-01-11T09:27:40;2.70;99.90
7658;DHT22;8462;53.156;8.220;2024-01-11T09:30:08;2.80;99.90
7658;DHT22;8462;53.156;8.220;2024-01-11T09:32:36;2.90;99.90
7658;DHT22;8462;53.156;8.220;2024-01-11T09:35:03;2.90;99.90
7658;DHT22;8462;53.156;8.220;2024-01-11T09:37:32;2.80;99.90
7658;DHT22;8462;53.156;8.220;2024-01-11T09:39:59;2.90;99.90
7658;DHT22;8462;53.156;8.220;2024-01-11T09:42:28;2.90;99.90
7658;DHT22;8462;53.156;8.220;2024-01-11T09:44:56;2.90;99.90
7658;DHT22;8462;53.156;8.220;2024-01-11T09:47:25;2.90;99.90
7658;DHT22;8462;53.156;8.220;2024-01-11T09:49:53;3.00;99.90
7658;DHT22;8462;53.156;8.220;2024-01-11T09:52:26;3.00;99.90
7658;DHT22;8462;53.156;8.220;2024-01-11T09:54:54;3.00;99.90
7658;DHT22;8462;53.156;8.220;2024-01-11T09:57:28;3.10;99.90
7658;DHT22;8462;53.156;8.220;2024-01-11T09:59:57;3.10;99.90
7658;DHT22;8462;53.156;8.220;2024-01-11T10:02:24;3.20;99.90
7658;DHT22;8462;53.156;8.220;2024-01-11T10:04:52;3.20;99.90
7658;DHT22;8462;53.156;8.220;2024-01-11T10:07:22;3.20;99.90
7658;DHT22;8462;53.156;8.220;2024-01-11T10:09:50;3.30;99.90
7658;DHT22;8462;53.156;8.220;2024-01-11T10:12:20;3.40;99.90
7658;DHT22;8462;53.156;8.220;2024-01-11T10:14:50;3.40;99.90
7658;DHT22;8462;53.156;8.220;2024-01-11T10:17:17;3.50;99.90
7658;DHT22;8462;53.156;8.220;2024-01-11T10:19:44;3.40;99.90
7658;DHT22;8462;53.156;8.220;2024-01-11T10:22:12;3.40;99.90
7658;DHT22;8462;53.156;8.220;2024-01-11T10:24:42;3.50;99.90
7658;DHT22;8462;53.156;8.220;2024-01-11T10:27:11;3.50;99.90
7658;DHT22;8462;53.156;8.220;2024-01-11T10:29:40;3.60;99.90
7658;DHT22;8462;53.156;8.220;2024-01-11T10:32:07;3.70;99.90
7658;DHT22;8462;53.156;8.220;2024-01-11T10:34:35;3.80;99.90
7658;DHT22;8462;53.156;8.220;2024-01-11T10:37:05;3.80;99.90
7658;DHT22;8462;53.156;8.220;2024-01-11T10:39:34;3.80;99.90
7658;DHT22;8462;53.156;8.220;2024-01-11T10:42:04;3.70;99.90
7658;DHT22;8462;53.156;8.220;2024-01-11T10:44:33;3.70;99.90
7658;DHT22;8462;53.156;8.220;2024-01-11T10:47:04;3.80;99.90
7658;DHT22;8462;53.156;8.220;2024-01-11T10:49:33;3.80;99.90
7658;DHT22;8462;53.156;8.220;2024-01-11T10:52:05;3.80;99.90
7658;DHT22;8462;53.156;8.220;2024-01-11T10:54:35;3.80;99.90
7658;DHT22;8462;53.156;8.220;2024-01-11T10:57:05;3.90;99.90
7658;DHT22;8462;53.156;8.220;2024-01-11T10:59:34;3.90;99.90
7658;DHT22;8462;53.156;8.220;2024-01-11T11:02:06;4.00;99.90
7658;DHT22;8462;53.156;8.220;2024-01-11T11:04:36;4.10;99.90
7658;DHT22;8462;53.156;8.220;2024-01-11T11:07:05;4.20;99.90
7658;DHT22;8462;53.156;8.220;2024-01-11T11:09:34;4.30;99.90
7658;DHT22;8462;53.156;8.220;2024-01-11T11:12:01;4.40;99.90
7658;DHT22;8462;53.156;8.220;2024-01-11T11:14:30;4.50;99.90
7658;DHT22;8462;53.156;8.220;2024-01-11T11:17:01;4.50;99.90
7658;DHT22;8462;53.156;8.220;2024-01-11T11:19:31;4.60;99.90
7658;DHT22;8462;53.156;8.220;2024-01-11T11:21:59;4.60;99.90
7658;DHT22;8462;53.156;8.220;2024-01-11T11:24:30;4.60;99.90
7658;DHT22;8462;53.156;8.220;2024-01-11T11:27:00;4.70;99.90
7658;DHT22;8462;53.156;8.220;2024-01-11T11:29:27;4.70;99.90
7658;DHT22;8462;53.156;8.220;2024-01-11T11:31:54;4.70;99.90
7658;DHT22;8462;53.156;8.220;2024-01-11T11:37:24;4.70;99.90
7658;DHT22;8462;53.156;8.220;2024-01-11T11:39:52;4.80;99.90
7658;DHT22;8462;53.156;8.220;2024-01-11T11:42:23;4.90;99.90
7658;DHT22;8462;53.156;8.220;2024-01-11T11:44:51;4.90;99.90
7658;DHT22;8462;53.156;8.220;2024-01-11T11:47:19;4.80;99.90
7658;DHT22;8462;53.156;8.220;2024-01-11T11:50:06;4.70;99.90
7658;DHT22;8462;53.156;8.220;2024-01-11T11:52:38;4.70;99.90
7658;DHT22;8462;53.156;8.220;2024-01-11T11:55:08;4.70;99.90
7658;DHT22;8462;53.156;8.220;2024-01-11T11:57:36;4.80;99.90
7658;DHT22;8462;53.156;8.220;2024-01-11T12:00:04;4.80;99.90
7658;DHT22;8462;53.156;8.220;2024-01-11T12:02:36;4.90;99.90
7658;DHT22;8462;53.156;8.220;2024-01-11T12:05:04;4.90;99.90
7658;DHT22;8462;53.156;8.220;2024-01-11T12:07:32;4.90;99.90
7658;DHT22;8462;53.156;8.220;2024-01-11T12:10:00;4.90;99.90
7658;DHT22;8462;53.156;8.220;2024-01-11T12:12:28;4.90;99.90
7658;DHT22;8462;53.156;8.220;2024-01-11T12:14:55;4.90;99.90
7658;DHT22;8462;53.156;8.220;2024-01-11T12:17:23;4.90;99.90
7658;DHT22;8462;53.156;8.220;2024-01-11T12:19:51;5.00;99.90
7658;DHT22;8462;53.156;8.220;2024-01-11T12:22:18;5.10;99.90
7658;DHT22;8462;53.156;8.220;2024-01-11T12:24:46;5.10;99.90
7658;DHT22;8462;53.156;8.220;2024-01-11T12:27:39;5.10;99.90
7658;DHT22;8462;53.156;8.220;2024-01-11T12:30:07;5.20;99.90
7658;DHT22;8462;53.156;8.220;2024-01-11T12:32:36;5.20;99.90
7658;DHT22;8462;53.156;8.220;2024-01-11T12:35:04;5.30;99.90
7658;DHT22;8462;53.156;8.220;2024-01-11T12:37:31;5.30;99.90
7658;DHT22;8462;53.156;8.220;2024-01-11T12:39:58;5.20;99.90
7658;DHT22;8462;53.156;8.220;2024-01-11T12:42:25;5.20;99.90
7658;DHT22;8462;53.156;8.220;2024-01-11T12:44:54;5.20;99.90
7658;DHT22;8462;53.156;8.220;2024-01-11T12:47:23;5.20;99.90
7658;DHT22;8462;53.156;8.220;2024-01-11T12:49:50;5.20;99.90
7658;DHT22;8462;53.156;8.220;2024-01-11T12:52:18;5.20;99.90
7658;DHT22;8462;53.156;8.220;2024-01-11T12:54:45;5.20;99.90
7658;DHT22;8462;53.156;8.220;2024-01-11T12:57:12;5.20;99.90
7658;DHT22;8462;53.156;8.220;2024-01-11T12:59:39;5.20;99.90
7658;DHT22;8462;53.156;8.220;2024-01-11T13:02:08;5.10;99.90
7658;DHT22;8462;53.156;8.220;2024-01-11T13:04:35;5.20;99.90
7658;DHT22;8462;53.156;8.220;2024-01-11T13:07:03;5.20;99.90
7658;DHT22;8462;53.156;8.220;2024-01-11T13:09:30;5.30;99.90
7658;DHT22;8462;53.156;8.220;2024-01-11T13:11:58;5.30;99.90
7658;DHT22;8462;53.156;8.220;2024-01-11T13:14:25;5.30;99.90
7658;DHT22;8462;53.156;8.220;2024-01-11T13:16:58;5.40;99.90
7658;DHT22;8462;53.156;8.220;2024-01-11T13:19:26;5.40;99.90
7658;DHT22;8462;53.156;8.220;2024-01-11T13:21:54;5.40;99.90
7658;DHT22;8462;53.156;8.220;2024-01-11T13:24:22;5.50;99.90
7658;DHT22;8462;53.156;8.220;2024-01-11T13:26:49;5.50;99.90
7658;DHT22;8462;53.156;8.220;2024-01-11T13:29:17;5.50;99.90
7658;DHT22;8462;53.156;8.220;2024-01-11T13:31:51;5.50;99.90
7658;DHT22;8462;53.156;8.220;2024-01-11T13:34:18;5.50;99.90
7658;DHT22;8462;53.156;8.220;2024-01-11T13:36:47;5.50;99.90
7658;DHT22;8462;53.156;8.220;2024-01-11T13:39:14;5.50;99.90
7658;DHT22;8462;53.156;8.220;2024-01-11T13:41:44;5.50;99.90
7658;DHT22;8462;53.156;8.220;2024-01-11T13:44:10;5.50;99.90
7658;DHT22;8462;53.156;8.220;2024-01-11T13:46:38;5.40;99.90
7658;DHT22;8462;53.156;8.220;2024-01-11T13:49:05;5.40;99.90
7658;DHT22;8462;53.156;8.220;2024-01-11T13:51:32;5.40;99.90
7658;DHT22;8462;53.156;8.220;2024-01-11T13:54:00;5.40;99.90
7658;DHT22;8462;53.156;8.220;2024-01-11T13:56:28;5.50;99.90
7658;DHT22;8462;53.156;8.220;2024-01-11T13:58:55;5.50;99.90
7658;DHT22;8462;53.156;8.220;2024-01-11T14:01:22;5.50;99.90
7658;DHT22;8462;53.156;8.220;2024-01-11T14:03:49;5.50;99.90
7658;DHT22;8462;53.156;8.220;2024-01-11T14:06:16;5.50;99.90
7658;DHT22;8462;53.156;8.220;2024-01-11T14:08:43;5.40;99.90
7658;DHT22;8462;53.156;8.220;2024-01-11T14:11:13;5.40;99.90
7658;DHT22;8462;53.156;8.220;2024-01-11T14:13:41;5.40;99.90
7658;DHT22;8462;53.156;8.220;2024-01-11T14:16:08;5.30;99.90
7658;DHT22;8462;53.156;8.220;2024-01-11T14:18:37;5.30;99.90
7658;DHT22;8462;53.156;8.220;2024-01-11T14:21:05;5.40;99.90
7658;DHT22;8462;53.156;8.220;2024-01-11T14:23:32;5.50;99.90
7658;DHT22;8462;53.156;8.220;2024-01-11T14:26:00;5.50;99.90
7658;DHT22;8462;53.156;8.220;2024-01-11T14:28:29;5.70;99.90
7658;DHT22;8462;53.156;8.220;2024-01-11T14:30:56;5.70;99.90
7658;DHT22;8462;53.156;8.220;2024-01-11T14:33:23;5.70;99.90
7658;DHT22;8462;53.156;8.220;2024-01-11T14:35:51;5.70;99.90
7658;DHT22;8462;53.156;8.220;2024-01-11T14:38:18;5.60;99.90
7658;DHT22;8462;53.156;8.220;2024-01-11T14:40:45;5.60;99.90
7658;DHT22;8462;53.156;8.220;2024-01-11T14:43:12;5.50;99.90
7658;DHT22;8462;53.156;8.220;2024-01-11T14:45:41;5.50;99.90
7658;DHT22;8462;53.156;8.220;2024-01-11T14:48:09;5.40;99.90
7658;DHT22;8462;53.156;8.220;2024-01-11T14:50:38;5.50;99.90
7658;DHT22;8462;53.156;8.220;2024-01-11T14:53:04;5.40;99.90
7658;DHT22;8462;53.156;8.220;2024-01-11T14:55:32;5.40;99.90
7658;DHT22;8462;53.156;8.220;2024-01-11T14:57:59;5.40;99.90
7658;DHT22;8462;53.156;8.220;2024-01-11T15:00:29;5.40;99.90
7658;DHT22;8462;53.156;8.220;2024-01-11T15:02:57;5.50;99.90
7658;DHT22;8462;53.156;8.220;2024-01-11T15:05:24;5.50;99.90
7658;DHT22;8462;53.156;8.220;2024-01-11T15:07:51;5.40;99.90
7658;DHT22;8462;53.156;8.220;2024-01-11T15:10:19;5.40;99.90
7658;DHT22;8462;53.156;8.220;2024-01-11T15:12:48;5.40;99.90
7658;DHT22;8462;53.156;8.220;2024-01-11T15:15:15;5.40;99.90
7658;DHT22;8462;53.156;8.220;2024-01-11T15:17:43;5.40;99.90
7658;DHT22;8462;53.156;8.220;2024-01-11T15:20:12;5.40;99.90
7658;DHT22;8462;53.156;8.220;2024-01-11T15:22:40;5.40;99.90
7658;DHT22;8462;53.156;8.220;2024-01-11T15:25:08;5.40;99.90
7658;DHT22;8462;53.156;8.220;2024-01-11T15:27:36;5.40;99.90
7658;DHT22;8462;53.156;8.220;2024-01-11T15:30:03;5.40;99.90
7658;DHT22;8462;53.156;8.220;2024-01-11T15:32:30;5.40;99.90
7658;DHT22;8462;53.156;8.220;2024-01-11T15:34:57;5.40;99.90
7658;DHT22;8462;53.156;8.220;2024-01-11T15:37:25;5.30;99.90
7658;DHT22;8462;53.156;8.220;2024-01-11T15:39:54;5.30;99.90
7658;DHT22;8462;53.156;8.220;2024-01-11T15:42:21;5.20;99.90
7658;DHT22;8462;53.156;8.220;2024-01-11T15:44:49;5.20;99.90
7658;DHT22;8462;53.156;8.220;2024-01-11T15:47:16;5.20;99.90
7658;DHT22;8462;53.156;8.220;2024-01-11T15:49:44;5.20;99.90
7658;DHT22;8462;53.156;8.220;2024-01-11T15:52:11;5.20;99.90
7658;DHT22;8462;53.156;8.220;2024-01-11T15:54:40;5.20;99.90
7658;DHT22;8462;53.156;8.220;2024-01-11T15:57:08;5.10;99.90
7658;DHT22;8462;53.156;8.220;2024-01-11T15:59:35;5.20;99.90
7658;DHT22;8462;53.156;8.220;2024-01-11T16:02:03;5.20;99.90
7658;DHT22;8462;53.156;8.220;2024-01-11T16:04:31;5.20;99.90
7658;DHT22;8462;53.156;8.220;2024-01-11T16:06:58;5.20;99.90
7658;DHT22;8462;53.156;8.220;2024-01-11T16:09:25;5.20;99.90
7658;DHT22;8462;53.156;8.220;2024-01-11T16:11:55;5.10;99.90
7658;DHT22;8462;53.156;8.220;2024-01-11T16:14:22;5.10;99.90
7658;DHT22;8462;53.156;8.220;2024-01-11T16:16:50;5.10;99.90
7658;DHT22;8462;53.156;8.220;2024-01-11T16:19:17;5.10;99.90